sensor_id;sensor_type;location;lat;lon;timestamp;temperature;humidity
76104;HTU21D;64831;44.870;37.336;2023-04-15T00:00:35;11.39;77.04
76104;HTU21D;64831;44.870;37.336;2023-04-15T00:03:01;11.37;77.11
76104;HTU21D;64831;44.870;37.336;2023-04-15T00:05:30;11.36;76.96
76104;HTU21D;64831;44.870;37.336;2023-04-15T00:07:56;11.36;77.28
76104;HTU21D;64831;44.870;37.336;2023-04-15T00:10:23;11.34;77.43
76104;HTU21D;64831;44.870;37.336;2023-04-15T00:12:49;11.33;77.27
76104;HTU21D;64831;44.870;37.336;2023-04-15T00:15:15;11.32;77.76
76104;HTU21D;64831;44.870;37.336;2023-04-15T00:17:41;11.31;77.69
76104;HTU21D;64831;44.870;37.336;2023-04-15T00:20:07;11.28;77.57
76104;HTU21D;64831;44.870;37.336;2023-04-15T00:22:33;11.29;77.53
76104;HTU21D;64831;44.870;37.336;2023-04-15T00:24:58;11.29;77.29
76104;HTU21D;64831;44.870;37.336;2023-04-15T00:27:24;11.30;77.57
76104;HTU21D;64831;44.870;37.336;2023-04-15T00:29:50;11.30;77.76
76104;HTU21D;64831;44.870;37.336;2023-04-15T00:32:16;11.30;77.37
76104;HTU21D;64831;44.870;37.336;2023-04-15T00:34:41;11.32;77.31
76104;HTU21D;64831;44.870;37.336;2023-04-15T00:37:08;11.31;77.18
76104;HTU21D;64831;44.870;37.336;2023-04-15T00:39:34;11.32;77.13
76104;HTU21D;64831;44.870;37.336;2023-04-15T00:42:00;11.33;76.99
76104;HTU21D;64831;44.870;37.336;2023-04-15T00:44:26;11.33;76.81
76104;HTU21D;64831;44.870;37.336;2023-04-15T00:46:52;11.33;76.82
76104;HTU21D;64831;44.870;37.336;2023-04-15T00:49:18;11.36;76.66
76104;HTU21D;64831;44.870;37.336;2023-04-15T00:51:44;11.36;76.60
76104;HTU21D;64831;44.870;37.336;2023-04-15T00:54:10;11.38;76.53
76104;HTU21D;64831;44.870;37.336;2023-04-15T00:56:37;11.38;76.46
76104;HTU21D;64831;44.870;37.336;2023-04-15T00:59:03;11.37;76.42
76104;HTU21D;64831;44.870;37.336;2023-04-15T01:01:30;11.38;76.41
76104;HTU21D;64831;44.870;37.336;2023-04-15T01:03:57;11.39;76.33
76104;HTU21D;64831;44.870;37.336;2023-04-15T01:06:23;11.39;76.21
76104;HTU21D;64831;44.870;37.336;2023-04-15T01:08:48;11.40;76.18
76104;HTU21D;64831;44.870;37.336;2023-04-15T01:11:15;11.40;76.13
76104;HTU21D;64831;44.870;37.336;2023-04-15T01:13:41;11.40;76.05
76104;HTU21D;64831;44.870;37.336;2023-04-15T01:16:07;11.42;76.02
76104;HTU21D;64831;44.870;37.336;2023-04-15T01:18:33;11.43;75.90
76104;HTU21D;64831;44.870;37.336;2023-04-15T01:21:02;11.42;75.84
76104;HTU21D;64831;44.870;37.336;2023-04-15T01:23:29;11.44;75.73
76104;HTU21D;64831;44.870;37.336;2023-04-15T01:25:55;11.44;75.57
76104;HTU21D;64831;44.870;37.336;2023-04-15T01:28:22;11.46;75.57
76104;HTU21D;64831;44.870;37.336;2023-04-15T01:30:48;11.47;75.64
76104;HTU21D;64831;44.870;37.336;2023-04-15T01:33:14;11.47;75.53
76104;HTU21D;64831;44.870;37.336;2023-04-15T01:35:40;11.47;75.41
76104;HTU21D;64831;44.870;37.336;2023-04-15T01:38:09;11.48;75.31
76104;HTU21D;64831;44.870;37.336;2023-04-15T01:40:36;11.51;75.20
76104;HTU21D;64831;44.870;37.336;2023-04-15T01:43:02;11.52;75.02
76104;HTU21D;64831;44.870;37.336;2023-04-15T01:45:28;11.52;75.05
76104;HTU21D;64831;44.870;37.336;2023-04-15T01:47:54;11.52;75.05
76104;HTU21D;64831;44.870;37.336;2023-04-15T01:50:20;11.49;75.06
76104;HTU21D;64831;44.870;37.336;2023-04-15T01:52:46;11.49;75.00
76104;HTU21D;64831;44.870;37.336;2023-04-15T01:55:12;11.47;75.05
76104;HTU21D;64831;44.870;37.336;2023-04-15T01:57:38;11.46;75.09
76104;HTU21D;64831;44.870;37.336;2023-04-15T02:00:05;11.46;75.14
76104;HTU21D;64831;44.870;37.336;2023-04-15T02:02:40;11.47;75.20
76104;HTU21D;64831;44.870;37.336;2023-04-15T02:05:06;11.46;75.22
76104;HTU21D;64831;44.870;37.336;2023-04-15T02:07:32;11.44;75.13
76104;HTU21D;64831;44.870;37.336;2023-04-15T02:09:58;11.45;75.17
76104;HTU21D;64831;44.870;37.336;2023-04-15T02:12:23;11.44;75.15
76104;HTU21D;64831;44.870;37.336;2023-04-15T02:14:50;11.44;75.48
76104;HTU21D;64831;44.870;37.336;2023-04-15T02:17:15;11.42;75.44
76104;HTU21D;64831;44.870;37.336;2023-04-15T02:19:42;11.41;75.61
76104;HTU21D;64831;44.870;37.336;2023-04-15T02:22:07;11.40;75.66
76104;HTU21D;64831;44.870;37.336;2023-04-15T02:24:33;11.39;75.65
76104;HTU21D;64831;44.870;37.336;2023-04-15T02:27:01;11.39;75.57
76104;HTU21D;64831;44.870;37.336;2023-04-15T02:29:27;11.40;75.70
76104;HTU21D;64831;44.870;37.336;2023-04-15T02:31:53;11.42;75.72
76104;HTU21D;64831;44.870;37.336;2023-04-15T02:34:19;11.41;75.79
76104;HTU21D;64831;44.870;37.336;2023-04-15T02:36:45;11.40;75.76
76104;HTU21D;64831;44.870;37.336;2023-04-15T02:39:14;11.41;75.72
76104;HTU21D;64831;44.870;37.336;2023-04-15T02:41:41;11.42;75.59
76104;HTU21D;64831;44.870;37.336;2023-04-15T02:44:09;11.42;75.47
76104;HTU21D;64831;44.870;37.336;2023-04-15T02:46:37;11.42;75.41
76104;HTU21D;64831;44.870;37.336;2023-04-15T02:49:03;11.43;75.34
76104;HTU21D;64831;44.870;37.336;2023-04-15T02:51:29;11.44;75.29
76104;HTU21D;64831;44.870;37.336;2023-04-15T02:53:58;11.44;75.19
76104;HTU21D;64831;44.870;37.336;2023-04-15T02:56:23;11.43;75.12
76104;HTU21D;64831;44.870;37.336;2023-04-15T02:58:50;11.43;75.09
76104;HTU21D;64831;44.870;37.336;2023-04-15T03:01:15;11.43;74.98
76104;HTU21D;64831;44.870;37.336;2023-04-15T03:03:41;11.46;75.02
76104;HTU21D;64831;44.870;37.336;2023-04-15T03:06:07;11.48;74.90
76104;HTU21D;64831;44.870;37.336;2023-04-15T03:08:33;11.48;74.82
76104;HTU21D;64831;44.870;37.336;2023-04-15T03:10:59;11.54;74.86
76104;HTU21D;64831;44.870;37.336;2023-04-15T03:13:27;11.57;74.72
76104;HTU21D;64831;44.870;37.336;2023-04-15T03:15:54;11.61;74.67
76104;HTU21D;64831;44.870;37.336;2023-04-15T03:18:22;11.67;74.38
76104;HTU21D;64831;44.870;37.336;2023-04-15T03:20:48;11.71;74.33
76104;HTU21D;64831;44.870;37.336;2023-04-15T03:23:14;11.78;74.10
76104;HTU21D;64831;44.870;37.336;2023-04-15T03:25:39;11.84;73.91
76104;HTU21D;64831;44.870;37.336;2023-04-15T03:28:06;11.90;73.46
76104;HTU21D;64831;44.870;37.336;2023-04-15T03:30:32;11.96;73.64
76104;HTU21D;64831;44.870;37.336;2023-04-15T03:32:58;12.02;73.59
76104;HTU21D;64831;44.870;37.336;2023-04-15T03:35:24;12.05;73.29
76104;HTU21D;64831;44.870;37.336;2023-04-15T03:37:50;12.10;73.22
76104;HTU21D;64831;44.870;37.336;2023-04-15T03:40:16;12.12;72.85
76104;HTU21D;64831;44.870;37.336;2023-04-15T03:42:41;12.17;72.72
76104;HTU21D;64831;44.870;37.336;2023-04-15T03:45:07;12.21;72.56
76104;HTU21D;64831;44.870;37.336;2023-04-15T03:47:33;12.25;72.55
76104;HTU21D;64831;44.870;37.336;2023-04-15T03:49:59;12.31;72.34
76104;HTU21D;64831;44.870;37.336;2023-04-15T03:52:24;12.36;72.22
76104;HTU21D;64831;44.870;37.336;2023-04-15T03:54:50;12.43;71.67
76104;HTU21D;64831;44.870;37.336;2023-04-15T03:57:16;12.48;71.96
76104;HTU21D;64831;44.870;37.336;2023-04-15T03:59:42;12.56;72.22
76104;HTU21D;64831;44.870;37.336;2023-04-15T04:02:08;12.61;72.20
76104;HTU21D;64831;44.870;37.336;2023-04-15T04:04:33;12.66;71.84
76104;HTU21D;64831;44.870;37.336;2023-04-15T04:06:59;12.70;71.79
76104;HTU21D;64831;44.870;37.336;2023-04-15T04:09:25;12.76;71.55
76104;HTU21D;64831;44.870;37.336;2023-04-15T04:11:51;12.79;71.06
76104;HTU21D;64831;44.870;37.336;2023-04-15T04:14:16;12.86;71.30
76104;HTU21D;64831;44.870;37.336;2023-04-15T04:16:42;12.90;70.39
76104;HTU21D;64831;44.870;37.336;2023-04-15T04:19:09;12.96;69.75
76104;HTU21D;64831;44.870;37.336;2023-04-15T04:21:34;13.00;69.90
76104;HTU21D;64831;44.870;37.336;2023-04-15T04:24:00;13.04;70.10
76104;HTU21D;64831;44.870;37.336;2023-04-15T04:26:26;13.09;70.61
76104;HTU21D;64831;44.870;37.336;2023-04-15T04:28:52;13.11;70.13
76104;HTU21D;64831;44.870;37.336;2023-04-15T04:31:17;13.15;70.27
76104;HTU21D;64831;44.870;37.336;2023-04-15T04:33:43;13.19;70.53
76104;HTU21D;64831;44.870;37.336;2023-04-15T04:36:09;13.22;70.26
76104;HTU21D;64831;44.870;37.336;2023-04-15T04:38:35;13.26;70.31
76104;HTU21D;64831;44.870;37.336;2023-04-15T04:41:01;13.33;70.30
76104;HTU21D;64831;44.870;37.336;2023-04-15T04:43:26;13.39;70.00
76104;HTU21D;64831;44.870;37.336;2023-04-15T04:45:52;13.44;69.99
76104;HTU21D;64831;44.870;37.336;2023-04-15T04:48:18;13.51;69.14
76104;HTU21D;64831;44.870;37.336;2023-04-15T04:50:44;13.55;69.72
76104;HTU21D;64831;44.870;37.336;2023-04-15T04:53:11;13.64;69.17
76104;HTU21D;64831;44.870;37.336;2023-04-15T04:55:37;13.74;68.92
76104;HTU21D;64831;44.870;37.336;2023-04-15T04:58:03;13.80;69.20
76104;HTU21D;64831;44.870;37.336;2023-04-15T05:00:28;13.89;69.13
76104;HTU21D;64831;44.870;37.336;2023-04-15T05:02:54;13.97;68.84
76104;HTU21D;64831;44.870;37.336;2023-04-15T05:05:20;14.04;68.76
76104;HTU21D;64831;44.870;37.336;2023-04-15T05:07:46;14.10;68.57
76104;HTU21D;64831;44.870;37.336;2023-04-15T05:10:13;14.18;68.88
76104;HTU21D;64831;44.870;37.336;2023-04-15T05:12:40;14.24;68.81
76104;HTU21D;64831;44.870;37.336;2023-04-15T05:15:05;14.35;68.03
76104;HTU21D;64831;44.870;37.336;2023-04-15T05:17:31;14.41;68.17
76104;HTU21D;64831;44.870;37.336;2023-04-15T05:19:59;14.54;68.39
76104;HTU21D;64831;44.870;37.336;2023-04-15T05:22:25;14.68;67.83
76104;HTU21D;64831;44.870;37.336;2023-04-15T05:24:51;14.79;67.26
76104;HTU21D;64831;44.870;37.336;2023-04-15T05:27:17;14.88;66.67
76104;HTU21D;64831;44.870;37.336;2023-04-15T05:29:43;14.99;67.13
76104;HTU21D;64831;44.870;37.336;2023-04-15T05:32:09;15.10;66.73
76104;HTU21D;64831;44.870;37.336;2023-04-15T05:34:35;15.26;66.46
76104;HTU21D;64831;44.870;37.336;2023-04-15T05:37:01;15.45;65.66
76104;HTU21D;64831;44.870;37.336;2023-04-15T05:39:27;15.68;64.92
76104;HTU21D;64831;44.870;37.336;2023-04-15T05:41:53;16.02;64.50
76104;HTU21D;64831;44.870;37.336;2023-04-15T05:44:19;16.62;65.17
76104;HTU21D;64831;44.870;37.336;2023-04-15T05:46:45;17.58;65.01
76104;HTU21D;64831;44.870;37.336;2023-04-15T05:49:10;18.64;62.82
76104;HTU21D;64831;44.870;37.336;2023-04-15T05:51:36;19.70;59.22
76104;HTU21D;64831;44.870;37.336;2023-04-15T05:54:02;20.65;55.87
76104;HTU21D;64831;44.870;37.336;2023-04-15T05:56:27;21.45;53.74
76104;HTU21D;64831;44.870;37.336;2023-04-15T05:58:53;22.04;51.08
76104;HTU21D;64831;44.870;37.336;2023-04-15T06:01:19;22.54;49.60
76104;HTU21D;64831;44.870;37.336;2023-04-15T06:03:45;22.80;46.28
76104;HTU21D;64831;44.870;37.336;2023-04-15T06:06:10;22.93;46.52
76104;HTU21D;64831;44.870;37.336;2023-04-15T06:08:36;22.88;44.48
76104;HTU21D;64831;44.870;37.336;2023-04-15T06:11:02;22.87;44.16
76104;HTU21D;64831;44.870;37.336;2023-04-15T06:13:28;22.88;44.89
76104;HTU21D;64831;44.870;37.336;2023-04-15T06:15:54;23.05;44.96
76104;HTU21D;64831;44.870;37.336;2023-04-15T06:18:19;23.23;44.72
76104;HTU21D;64831;44.870;37.336;2023-04-15T06:20:45;23.10;42.07
76104;HTU21D;64831;44.870;37.336;2023-04-15T06:23:11;22.85;42.63
76104;HTU21D;64831;44.870;37.336;2023-04-15T06:25:36;22.73;43.07
76104;HTU21D;64831;44.870;37.336;2023-04-15T06:28:02;22.83;43.31
76104;HTU21D;64831;44.870;37.336;2023-04-15T06:30:28;22.83;43.32
76104;HTU21D;64831;44.870;37.336;2023-04-15T06:32:54;22.97;43.04
76104;HTU21D;64831;44.870;37.336;2023-04-15T06:35:20;23.14;44.29
76104;HTU21D;64831;44.870;37.336;2023-04-15T06:37:45;23.51;44.29
76104;HTU21D;64831;44.870;37.336;2023-04-15T06:40:11;23.86;43.58
76104;HTU21D;64831;44.870;37.336;2023-04-15T06:42:37;24.20;43.80
76104;HTU21D;64831;44.870;37.336;2023-04-15T06:45:03;24.46;41.53
76104;HTU21D;64831;44.870;37.336;2023-04-15T06:47:29;24.58;40.71
76104;HTU21D;64831;44.870;37.336;2023-04-15T06:49:55;24.64;39.54
76104;HTU21D;64831;44.870;37.336;2023-04-15T06:52:20;24.60;39.12
76104;HTU21D;64831;44.870;37.336;2023-04-15T06:54:46;24.72;41.01
76104;HTU21D;64831;44.870;37.336;2023-04-15T06:57:12;24.99;39.53
76104;HTU21D;64831;44.870;37.336;2023-04-15T06:59:37;25.38;41.45
76104;HTU21D;64831;44.870;37.336;2023-04-15T07:02:03;25.80;40.81
76104;HTU21D;64831;44.870;37.336;2023-04-15T07:04:29;25.93;39.77
76104;HTU21D;64831;44.870;37.336;2023-04-15T07:06:55;25.92;38.11
76104;HTU21D;64831;44.870;37.336;2023-04-15T07:09:22;25.95;37.70
76104;HTU21D;64831;44.870;37.336;2023-04-15T07:11:47;26.18;38.22
76104;HTU21D;64831;44.870;37.336;2023-04-15T07:14:13;26.25;37.58
76104;HTU21D;64831;44.870;37.336;2023-04-15T07:16:39;26.40;38.09
76104;HTU21D;64831;44.870;37.336;2023-04-15T07:19:05;26.51;36.21
76104;HTU21D;64831;44.870;37.336;2023-04-15T07:21:31;26.52;34.24
76104;HTU21D;64831;44.870;37.336;2023-04-15T07:23:57;26.53;34.81
76104;HTU21D;64831;44.870;37.336;2023-04-15T07:26:23;26.35;33.92
76104;HTU21D;64831;44.870;37.336;2023-04-15T07:28:49;26.40;35.60
76104;HTU21D;64831;44.870;37.336;2023-04-15T07:31:15;26.61;35.59
76104;HTU21D;64831;44.870;37.336;2023-04-15T07:33:41;26.75;35.76
76104;HTU21D;64831;44.870;37.336;2023-04-15T07:36:07;26.72;33.47
76104;HTU21D;64831;44.870;37.336;2023-04-15T07:38:33;26.89;35.28
76104;HTU21D;64831;44.870;37.336;2023-04-15T07:40:59;27.06;33.70
76104;HTU21D;64831;44.870;37.336;2023-04-15T07:43:24;27.21;33.63
76104;HTU21D;64831;44.870;37.336;2023-04-15T07:45:50;27.32;33.76
76104;HTU21D;64831;44.870;37.336;2023-04-15T07:48:16;27.41;32.72
76104;HTU21D;64831;44.870;37.336;2023-04-15T07:50:41;27.55;34.56
76104;HTU21D;64831;44.870;37.336;2023-04-15T07:53:07;27.78;34.32
76104;HTU21D;64831;44.870;37.336;2023-04-15T07:55:33;27.94;33.28
76104;HTU21D;64831;44.870;37.336;2023-04-15T07:57:59;28.01;33.51
76104;HTU21D;64831;44.870;37.336;2023-04-15T08:00:25;28.10;33.28
76104;HTU21D;64831;44.870;37.336;2023-04-15T08:02:51;28.19;32.35
76104;HTU21D;64831;44.870;37.336;2023-04-15T08:05:18;28.27;32.20
76104;HTU21D;64831;44.870;37.336;2023-04-15T08:07:44;28.19;31.47
76104;HTU21D;64831;44.870;37.336;2023-04-15T08:10:09;28.09;32.54
76104;HTU21D;64831;44.870;37.336;2023-04-15T08:12:36;27.94;29.83
76104;HTU21D;64831;44.870;37.336;2023-04-15T08:15:02;27.76;31.98
76104;HTU21D;64831;44.870;37.336;2023-04-15T08:17:28;27.87;30.40
76104;HTU21D;64831;44.870;37.336;2023-04-15T08:19:54;27.85;31.68
76104;HTU21D;64831;44.870;37.336;2023-04-15T08:22:20;27.93;31.90
76104;HTU21D;64831;44.870;37.336;2023-04-15T08:24:46;27.98;31.43
76104;HTU21D;64831;44.870;37.336;2023-04-15T08:27:11;28.04;31.70
76104;HTU21D;64831;44.870;37.336;2023-04-15T08:29:38;28.05;32.18
76104;HTU21D;64831;44.870;37.336;2023-04-15T08:32:05;28.06;31.67
76104;HTU21D;64831;44.870;37.336;2023-04-15T08:34:30;27.89;31.58
76104;HTU21D;64831;44.870;37.336;2023-04-15T08:36:56;27.81;31.29
76104;HTU21D;64831;44.870;37.336;2023-04-15T08:39:22;27.53;29.85
76104;HTU21D;64831;44.870;37.336;2023-04-15T08:41:51;27.51;30.63
76104;HTU21D;64831;44.870;37.336;2023-04-15T08:44:17;27.37;30.28
76104;HTU21D;64831;44.870;37.336;2023-04-15T08:46:42;27.55;30.93
76104;HTU21D;64831;44.870;37.336;2023-04-15T08:49:09;27.53;30.88
76104;HTU21D;64831;44.870;37.336;2023-04-15T08:51:36;27.59;30.44
76104;HTU21D;64831;44.870;37.336;2023-04-15T08:54:03;27.66;30.35
76104;HTU21D;64831;44.870;37.336;2023-04-15T08:56:30;27.59;30.19
76104;HTU21D;64831;44.870;37.336;2023-04-15T08:58:57;27.65;31.32
76104;HTU21D;64831;44.870;37.336;2023-04-15T09:01:23;27.56;30.69
76104;HTU21D;64831;44.870;37.336;2023-04-15T09:03:49;27.46;29.13
76104;HTU21D;64831;44.870;37.336;2023-04-15T09:06:16;27.23;29.64
76104;HTU21D;64831;44.870;37.336;2023-04-15T09:08:42;27.12;29.90
76104;HTU21D;64831;44.870;37.336;2023-04-15T09:11:07;27.01;29.60
76104;HTU21D;64831;44.870;37.336;2023-04-15T09:13:33;26.86;29.50
76104;HTU21D;64831;44.870;37.336;2023-04-15T09:16:02;27.14;30.99
76104;HTU21D;64831;44.870;37.336;2023-04-15T09:18:30;27.05;29.29
76104;HTU21D;64831;44.870;37.336;2023-04-15T09:21:03;27.29;30.87
76104;HTU21D;64831;44.870;37.336;2023-04-15T09:23:29;27.49;30.69
76104;HTU21D;64831;44.870;37.336;2023-04-15T09:25:56;27.34;29.57
76104;HTU21D;64831;44.870;37.336;2023-04-15T09:28:22;27.41;29.03
76104;HTU21D;64831;44.870;37.336;2023-04-15T09:30:50;27.21;29.62
76104;HTU21D;64831;44.870;37.336;2023-04-15T09:33:16;27.19;28.98
76104;HTU21D;64831;44.870;37.336;2023-04-15T09:35:41;27.29;30.30
76104;HTU21D;64831;44.870;37.336;2023-04-15T09:38:20;27.20;28.54
76104;HTU21D;64831;44.870;37.336;2023-04-15T09:40:46;27.39;29.75
76104;HTU21D;64831;44.870;37.336;2023-04-15T09:43:12;27.59;29.71
76104;HTU21D;64831;44.870;37.336;2023-04-15T09:45:38;27.72;28.97
76104;HTU21D;64831;44.870;37.336;2023-04-15T09:50:42;27.73;29.60
76104;HTU21D;64831;44.870;37.336;2023-04-15T09:53:08;27.70;28.33
76104;HTU21D;64831;44.870;37.336;2023-04-15T09:55:35;27.57;28.28
76104;HTU21D;64831;44.870;37.336;2023-04-15T09:58:00;27.41;27.80
76104;HTU21D;64831;44.870;37.336;2023-04-15T10:00:26;27.34;28.41
76104;HTU21D;64831;44.870;37.336;2023-04-15T10:02:54;27.17;28.79
76104;HTU21D;64831;44.870;37.336;2023-04-15T10:05:20;26.56;26.97
76104;HTU21D;64831;44.870;37.336;2023-04-15T10:07:46;26.13;28.07
76104;HTU21D;64831;44.870;37.336;2023-04-15T10:10:12;25.79;28.69
76104;HTU21D;64831;44.870;37.336;2023-04-15T10:12:40;25.38;29.03
76104;HTU21D;64831;44.870;37.336;2023-04-15T10:15:06;24.90;29.53
76104;HTU21D;64831;44.870;37.336;2023-04-15T12:27:24;20.27;37.40
76104;HTU21D;64831;44.870;37.336;2023-04-15T12:29:56;20.29;37.37
76104;HTU21D;64831;44.870;37.336;2023-04-15T12:32:27;20.29;37.44
76104;HTU21D;64831;44.870;37.336;2023-04-15T12:34:53;20.25;37.66
76104;HTU21D;64831;44.870;37.336;2023-04-15T12:37:19;20.13;37.69
76104;HTU21D;64831;44.870;37.336;2023-04-15T12:39:46;19.98;37.62
76104;HTU21D;64831;44.870;37.336;2023-04-15T12:42:13;19.83;38.04
76104;HTU21D;64831;44.870;37.336;2023-04-15T12:44:39;19.69;38.53
76104;HTU21D;64831;44.870;37.336;2023-04-15T12:47:05;19.67;38.58
76104;HTU21D;64831;44.870;37.336;2023-04-15T12:49:31;19.67;38.56
76104;HTU21D;64831;44.870;37.336;2023-04-15T12:51:58;19.62;38.85
76104;HTU21D;64831;44.870;37.336;2023-04-15T12:54:25;19.61;38.78
76104;HTU21D;64831;44.870;37.336;2023-04-15T12:56:51;19.56;38.14
76104;HTU21D;64831;44.870;37.336;2023-04-15T12:59:17;19.52;38.35
76104;HTU21D;64831;44.870;37.336;2023-04-15T13:01:43;19.47;38.38
76104;HTU21D;64831;44.870;37.336;2023-04-15T13:04:09;19.42;38.83
76104;HTU21D;64831;44.870;37.336;2023-04-15T13:06:35;19.41;38.67
76104;HTU21D;64831;44.870;37.336;2023-04-15T13:09:01;19.40;39.14
76104;HTU21D;64831;44.870;37.336;2023-04-15T13:11:28;19.40;39.05
76104;HTU21D;64831;44.870;37.336;2023-04-15T13:13:55;19.36;38.91
76104;HTU21D;64831;44.870;37.336;2023-04-15T13:16:22;19.29;39.18
76104;HTU21D;64831;44.870;37.336;2023-04-15T13:18:48;19.27;39.33
76104;HTU21D;64831;44.870;37.336;2023-04-15T13:21:13;19.25;39.39
76104;HTU21D;64831;44.870;37.336;2023-04-15T13:23:40;19.22;39.27
76104;HTU21D;64831;44.870;37.336;2023-04-15T13:26:06;19.15;39.51
76104;HTU21D;64831;44.870;37.336;2023-04-15T13:28:31;19.03;39.49
76104;HTU21D;64831;44.870;37.336;2023-04-15T13:30:57;18.92;39.75
76104;HTU21D;64831;44.870;37.336;2023-04-15T13:33:23;18.82;39.95
76104;HTU21D;64831;44.870;37.336;2023-04-15T13:35:48;18.80;40.26
76104;HTU21D;64831;44.870;37.336;2023-04-15T13:38:14;18.73;40.09
76104;HTU21D;64831;44.870;37.336;2023-04-15T13:40:41;18.71;40.34
76104;HTU21D;64831;44.870;37.336;2023-04-15T13:43:06;18.62;40.06
76104;HTU21D;64831;44.870;37.336;2023-04-15T13:45:32;18.51;39.96
76104;HTU21D;64831;44.870;37.336;2023-04-15T13:47:58;18.46;40.35
76104;HTU21D;64831;44.870;37.336;2023-04-15T13:50:23;18.39;40.21
76104;HTU21D;64831;44.870;37.336;2023-04-15T13:52:49;18.40;40.36
76104;HTU21D;64831;44.870;37.336;2023-04-15T13:55:15;18.22;39.42
76104;HTU21D;64831;44.870;37.336;2023-04-15T13:57:41;18.22;39.75
76104;HTU21D;64831;44.870;37.336;2023-04-15T14:00:07;18.13;39.68
76104;HTU21D;64831;44.870;37.336;2023-04-15T14:02:32;18.06;39.85
76104;HTU21D;64831;44.870;37.336;2023-04-15T14:04:58;18.04;40.00
76104;HTU21D;64831;44.870;37.336;2023-04-15T14:07:24;17.94;39.97
76104;HTU21D;64831;44.870;37.336;2023-04-15T14:09:49;17.91;39.99
76104;HTU21D;64831;44.870;37.336;2023-04-15T14:12:15;17.88;40.34
76104;HTU21D;64831;44.870;37.336;2023-04-15T14:14:41;17.88;40.25
76104;HTU21D;64831;44.870;37.336;2023-04-15T14:17:07;17.89;40.20
76104;HTU21D;64831;44.870;37.336;2023-04-15T14:19:33;17.82;39.67
76104;HTU21D;64831;44.870;37.336;2023-04-15T14:21:59;17.78;39.42
76104;HTU21D;64831;44.870;37.336;2023-04-15T14:24:25;17.75;39.66
76104;HTU21D;64831;44.870;37.336;2023-04-15T14:26:50;17.68;39.15
76104;HTU21D;64831;44.870;37.336;2023-04-15T14:29:16;17.62;39.56
76104;HTU21D;64831;44.870;37.336;2023-04-15T14:31:42;17.56;39.94
76104;HTU21D;64831;44.870;37.336;2023-04-15T14:34:09;17.47;39.70
76104;HTU21D;64831;44.870;37.336;2023-04-15T14:36:35;17.44;39.88
76104;HTU21D;64831;44.870;37.336;2023-04-15T14:39:01;17.43;39.88
76104;HTU21D;64831;44.870;37.336;2023-04-15T14:41:28;17.44;40.22
76104;HTU21D;64831;44.870;37.336;2023-04-15T14:43:54;17.41;40.13
76104;HTU21D;64831;44.870;37.336;2023-04-15T14:46:21;17.43;40.23
76104;HTU21D;64831;44.870;37.336;2023-04-15T14:48:47;17.41;40.20
76104;HTU21D;64831;44.870;37.336;2023-04-15T14:51:13;17.40;40.23
76104;HTU21D;64831;44.870;37.336;2023-04-15T14:53:40;17.41;40.68
76104;HTU21D;64831;44.870;37.336;2023-04-15T14:56:06;17.43;40.48
76104;HTU21D;64831;44.870;37.336;2023-04-15T14:58:32;17.44;40.49
76104;HTU21D;64831;44.870;37.336;2023-04-15T15:00:57;17.44;40.39
76104;HTU21D;64831;44.870;37.336;2023-04-15T15:03:23;17.46;40.48
76104;HTU21D;64831;44.870;37.336;2023-04-15T15:05:49;17.46;40.59
76104;HTU21D;64831;44.870;37.336;2023-04-15T15:08:15;17.48;40.71
76104;HTU21D;64831;44.870;37.336;2023-04-15T15:10:41;17.48;40.78
76104;HTU21D;64831;44.870;37.336;2023-04-15T15:13:07;17.48;40.81
76104;HTU21D;64831;44.870;37.336;2023-04-15T15:15:33;17.46;40.86
76104;HTU21D;64831;44.870;37.336;2023-04-15T15:17:59;17.40;40.94
76104;HTU21D;64831;44.870;37.336;2023-04-15T15:20:25;17.36;41.06
76104;HTU21D;64831;44.870;37.336;2023-04-15T15:22:51;17.32;41.09
76104;HTU21D;64831;44.870;37.336;2023-04-15T15:25:17;17.25;41.28
76104;HTU21D;64831;44.870;37.336;2023-04-15T15:27:43;17.20;41.66
76104;HTU21D;64831;44.870;37.336;2023-04-15T15:30:09;17.14;41.72
76104;HTU21D;64831;44.870;37.336;2023-04-15T15:32:34;17.09;41.68
76104;HTU21D;64831;44.870;37.336;2023-04-15T15:35:00;17.06;41.84
76104;HTU21D;64831;44.870;37.336;2023-04-15T15:37:26;17.03;42.00
76104;HTU21D;64831;44.870;37.336;2023-04-15T15:39:52;17.01;42.23
76104;HTU21D;64831;44.870;37.336;2023-04-15T15:42:18;17.01;42.57
76104;HTU21D;64831;44.870;37.336;2023-04-15T15:44:43;16.99;42.74
76104;HTU21D;64831;44.870;37.336;2023-04-15T15:47:10;16.98;42.97
76104;HTU21D;64831;44.870;37.336;2023-04-15T15:49:36;16.96;43.79
76104;HTU21D;64831;44.870;37.336;2023-04-15T15:52:01;16.95;45.37
76104;HTU21D;64831;44.870;37.336;2023-04-15T15:54:27;16.90;48.66
76104;HTU21D;64831;44.870;37.336;2023-04-15T15:56:53;16.86;51.57
76104;HTU21D;64831;44.870;37.336;2023-04-15T15:59:19;16.79;49.41
76104;HTU21D;64831;44.870;37.336;2023-04-15T16:01:45;16.75;49.56
76104;HTU21D;64831;44.870;37.336;2023-04-15T16:04:10;16.66;52.08
76104;HTU21D;64831;44.870;37.336;2023-04-15T16:06:36;16.54;56.37
76104;HTU21D;64831;44.870;37.336;2023-04-15T16:09:02;16.40;58.19
76104;HTU21D;64831;44.870;37.336;2023-04-15T16:11:28;16.28;57.03
76104;HTU21D;64831;44.870;37.336;2023-04-15T16:13:54;16.12;60.03
76104;HTU21D;64831;44.870;37.336;2023-04-15T16:16:19;16.02;58.45
76104;HTU21D;64831;44.870;37.336;2023-04-15T16:18:46;15.89;61.56
76104;HTU21D;64831;44.870;37.336;2023-04-15T16:21:11;15.77;60.35
76104;HTU21D;64831;44.870;37.336;2023-04-15T16:23:37;15.70;59.83
76104;HTU21D;64831;44.870;37.336;2023-04-15T16:26:03;15.59;62.40
76104;HTU21D;64831;44.870;37.336;2023-04-15T16:28:29;15.49;61.94
76104;HTU21D;64831;44.870;37.336;2023-04-15T16:30:54;15.41;63.04
76104;HTU21D;64831;44.870;37.336;2023-04-15T16:33:21;15.34;61.17
76104;HTU21D;64831;44.870;37.336;2023-04-15T16:35:47;15.25;62.08
76104;HTU21D;64831;44.870;37.336;2023-04-15T16:38:12;15.19;63.69
76104;HTU21D;64831;44.870;37.336;2023-04-15T16:40:38;15.14;62.90
76104;HTU21D;64831;44.870;37.336;2023-04-15T16:43:04;15.07;64.30
76104;HTU21D;64831;44.870;37.336;2023-04-15T16:45:31;14.98;64.38
76104;HTU21D;64831;44.870;37.336;2023-04-15T16:47:57;14.93;64.35
76104;HTU21D;64831;44.870;37.336;2023-04-15T16:50:23;14.85;64.83
76104;HTU21D;64831;44.870;37.336;2023-04-15T16:52:49;14.82;63.66
76104;HTU21D;64831;44.870;37.336;2023-04-15T16:55:15;14.73;64.43
76104;HTU21D;64831;44.870;37.336;2023-04-15T16:57:40;14.70;65.18
76104;HTU21D;64831;44.870;37.336;2023-04-15T17:00:06;14.65;65.15
76104;HTU21D;64831;44.870;37.336;2023-04-15T17:02:32;14.62;65.11
76104;HTU21D;64831;44.870;37.336;2023-04-15T17:04:58;14.58;66.12
76104;HTU21D;64831;44.870;37.336;2023-04-15T17:07:24;14.52;66.01